createdAt,value
2019-04-11T08:11:37.956Z,17.17
2019-04-11T08:14:11.023Z,17.23
2019-04-11T08:16:55.268Z,17.67
2019-04-11T08:19:38.628Z,18.20
2019-04-11T08:22:27.177Z,17.27
2019-04-11T08:25:05.026Z,17.60
2019-04-11T08:27:53.016Z,18.33
2019-04-11T08:30:12.784Z,18.83
2019-04-11T08:32:46.794Z,17.83
2019-04-11T08:35:19.849Z,17.47
2019-04-11T08:38:08.352Z,18.73
2019-04-11T08:40:47.149Z,18.43
2019-04-11T08:43:19.393Z,18.43
2019-04-11T08:46:08.783Z,18.13
2019-04-11T08:48:44.160Z,18.67
2019-04-11T08:51:16.971Z,17.57
2019-04-11T08:54:07.424Z,18.30
2019-04-11T08:56:43.184Z,19.30
2019-04-11T08:59:37.793Z,18.40
2019-04-11T09:02:09.107Z,17.67
2019-04-11T09:05:07.050Z,18.93
2019-04-11T09:07:38.020Z,17.93
2019-04-11T09:10:28.212Z,18.07
2019-04-11T09:13:00.691Z,18.13
2019-04-11T09:15:48.836Z,16.73
2019-04-11T09:18:21.838Z,18.60
2019-04-11T09:21:11.918Z,18.07
2019-04-11T09:23:42.571Z,17.83
2019-04-11T09:26:28.231Z,17.47
2019-04-11T09:28:57.740Z,18.30
2019-04-11T09:31:41.701Z,17.67
2019-04-11T09:34:16.118Z,18.43
2019-04-11T09:36:55.242Z,18.77
2019-04-11T09:39:31.999Z,17.30
2019-04-11T09:42:17.674Z,18.03
2019-04-11T09:44:50.500Z,18.10
2019-04-11T09:47:38.864Z,18.03
2019-04-11T09:50:27.321Z,18.37
2019-04-11T09:52:59.397Z,18.17
2019-04-11T09:55:34.401Z,18.43
2019-04-11T09:58:03.786Z,18.83
2019-04-11T10:00:47.662Z,18.27
2019-04-11T10:03:21.877Z,18.77
2019-04-11T10:06:00.024Z,18.23
2019-04-11T10:08:35.040Z,18.63
2019-04-11T10:11:26.166Z,19.17
2019-04-11T10:13:59.546Z,19.57
2019-04-11T10:16:31.880Z,19.20
2019-04-11T10:19:03.419Z,19.13
2019-04-11T10:21:35.485Z,19.03
2019-04-11T10:24:11.729Z,19.80
2019-04-11T10:26:56.276Z,20.37
2019-04-11T10:29:31.885Z,20.10
2019-04-11T10:32:03.236Z,18.93
2019-04-11T10:34:37.534Z,20.40
2019-04-11T10:37:09.755Z,20.00
2019-04-11T10:39:57.536Z,19.63
2019-04-11T10:42:26.942Z,20.17
2019-04-11T10:45:16.629Z,20.73
2019-04-11T10:47:47.607Z,20.10
2019-04-11T10:50:25.834Z,21.60
2019-04-11T10:52:56.984Z,20.73
2019-04-11T10:55:29.405Z,21.50
2019-04-11T10:58:04.909Z,20.97
2019-04-11T11:00:37.621Z,20.67
2019-04-11T11:03:14.160Z,20.77
2019-04-11T11:05:49.369Z,20.33
2019-04-11T11:08:33.407Z,21.93
2019-04-11T11:11:04.376Z,21.70
2019-04-11T11:13:51.808Z,22.40
2019-04-11T11:16:25.412Z,21.20
2019-04-11T11:19:29.942Z,21.77
2019-04-11T11:21:35.641Z,20.70
2019-04-11T11:24:26.048Z,20.47
2019-04-11T11:27:00.590Z,21.17
2019-04-11T11:29:35.000Z,21.03
2019-04-11T11:32:07.144Z,21.70
2019-04-11T11:34:52.156Z,21.13
2019-04-11T11:37:22.910Z,21.60
2019-04-11T11:40:05.742Z,20.47
2019-04-11T11:42:32.663Z,22.30
2019-04-11T11:45:04.153Z,22.57
2019-04-11T11:47:39.888Z,22.60
2019-04-11T11:50:17.920Z,22.93
2019-04-11T11:52:51.627Z,21.97
2019-04-11T11:55:22.109Z,22.37
2019-04-11T11:57:55.172Z,22.27
2019-04-11T12:00:27.102Z,21.97
2019-04-11T12:03:03.578Z,22.10
2019-04-11T12:05:36.671Z,20.70
2019-04-11T12:08:12.239Z,22.23
2019-04-11T12:10:51.432Z,21.63
2019-04-11T12:13:41.534Z,21.87
2019-04-11T12:16:19.067Z,22.57
2019-04-11T12:19:04.678Z,22.07
2019-04-11T12:21:40.852Z,22.27
2019-04-11T12:24:28.520Z,21.40
2019-04-11T12:27:14.625Z,21.03
2019-04-11T12:30:05.792Z,22.13
2019-04-11T12:32:36.794Z,21.77
2019-04-11T12:35:11.543Z,20.67
2019-04-11T12:37:50.514Z,20.80
2019-04-11T12:40:19.983Z,20.53
2019-04-11T12:42:49.504Z,21.40
2019-04-11T12:45:31.892Z,22.47
2019-04-11T12:48:04.596Z,22.50
2019-04-11T12:50:44.426Z,22.50
2019-04-11T12:53:14.075Z,21.57
2019-04-11T12:55:46.265Z,21.00
2019-04-11T12:58:21.179Z,21.47
2019-04-11T13:00:59.190Z,22.37
2019-04-11T13:03:46.445Z,21.77
2019-04-11T13:06:21.324Z,22.03
2019-04-11T13:08:59.338Z,22.07
2019-04-11T13:11:31.287Z,21.27
2019-04-11T13:14:05.751Z,21.60
2019-04-11T13:16:36.316Z,22.37
2019-04-11T13:19:14.327Z,21.53
2019-04-11T13:21:46.527Z,21.10
2019-04-11T13:24:27.048Z,22.83
2019-04-11T13:27:12.871Z,22.17
2019-04-11T13:29:45.196Z,23.30
2019-04-11T13:32:31.473Z,23.70
2019-04-11T13:35:12.219Z,23.13
2019-04-11T13:38:00.592Z,23.00
2019-04-11T13:40:38.551Z,22.60
2019-04-11T13:43:12.609Z,21.23
2019-04-11T13:45:58.495Z,22.87
2019-04-11T13:48:30.900Z,22.83
2019-04-11T13:51:03.236Z,21.70
2019-04-11T13:53:38.123Z,23.97
2019-04-11T13:56:08.632Z,23.30
2019-04-11T13:58:46.347Z,21.90
2019-04-11T14:01:15.870Z,23.20
2019-04-11T14:04:03.153Z,22.20
2019-04-11T14:06:31.724Z,23.10
2019-04-11T14:09:03.351Z,23.43
2019-04-11T14:11:33.801Z,23.37
2019-04-11T14:14:18.356Z,22.30
2019-04-11T14:16:58.467Z,22.83
2019-04-11T14:19:46.941Z,21.43
2019-04-11T14:22:18.027Z,22.60
2019-04-11T14:24:49.152Z,20.33
2019-04-11T14:27:32.114Z,21.50
2019-04-11T14:30:18.636Z,21.37
2019-04-11T14:32:49.258Z,21.27
2019-04-11T14:35:31.398Z,22.97
2019-04-11T14:38:02.512Z,22.50
2019-04-11T14:40:41.644Z,21.67
2019-04-11T14:43:19.098Z,22.30
2019-04-11T14:45:57.327Z,20.93
2019-04-11T14:48:46.795Z,20.57
2019-04-11T14:51:23.809Z,21.03
2019-04-11T14:54:11.959Z,20.13
2019-04-11T14:56:47.805Z,20.43
2019-04-11T14:59:25.962Z,20.70
2019-04-11T15:02:05.870Z,19.57
2019-04-11T15:04:47.023Z,21.10
2019-04-11T15:07:18.041Z,19.70
2019-04-11T15:10:05.405Z,21.47
2019-04-11T15:12:41.121Z,20.17
2019-04-11T15:15:30.355Z,20.30
2019-04-11T15:18:02.619Z,21.90
2019-04-11T15:20:55.219Z,18.87
2019-04-11T15:23:29.659Z,18.73
2019-04-11T15:26:17.796Z,18.37
2019-04-11T15:28:51.863Z,18.10
2019-04-11T15:31:39.616Z,18.60
2019-04-11T15:34:10.491Z,18.33
2019-04-11T15:36:42.724Z,19.30
2019-04-11T15:39:20.848Z,18.90
2019-04-11T15:42:01.792Z,19.70
2019-04-11T15:44:44.643Z,18.90
2019-04-11T15:47:19.586Z,19.47
2019-04-11T15:50:07.026Z,19.13
2019-04-11T15:52:38.908Z,19.23
2019-04-11T15:55:20.200Z,20.70
2019-04-11T15:57:50.819Z,20.43
2019-04-11T16:00:22.164Z,19.63
2019-04-11T16:03:01.192Z,20.53
2019-04-11T16:05:47.573Z,20.00
2019-04-11T16:08:21.439Z,19.77
2019-04-11T16:10:54.289Z,19.73
2019-04-11T16:13:27.464Z,19.77
2019-04-11T16:16:11.952Z,20.27
2019-04-11T16:18:49.847Z,20.27
2019-04-11T16:21:27.004Z,20.37
2019-04-11T16:24:02.061Z,21.13
2019-04-11T16:26:49.359Z,19.10
2019-04-11T16:29:33.886Z,21.67
2019-04-11T16:32:09.074Z,19.57
2019-04-11T16:34:54.355Z,19.73
2019-04-11T16:37:22.523Z,21.73
2019-04-11T16:40:12.250Z,21.03
2019-04-11T16:42:43.667Z,18.43
2019-04-11T16:45:15.956Z,19.67
2019-04-11T16:47:51.103Z,20.00
2019-04-11T16:50:19.941Z,18.83
2019-04-11T16:52:51.353Z,19.30
2019-04-11T16:55:22.501Z,20.33
2019-04-11T16:57:54.584Z,20.00
2019-04-11T17:00:27.719Z,20.87
2019-04-11T17:02:58.658Z,19.07
2019-04-11T17:05:29.239Z,20.00
2019-04-11T17:08:01.440Z,19.53
2019-04-11T17:10:39.374Z,19.47
2019-04-11T17:13:10.117Z,17.93
2019-04-11T17:15:40.912Z,18.80
2019-04-11T17:18:13.561Z,18.03
2019-04-11T17:20:46.429Z,20.17
2019-04-11T17:23:17.335Z,18.40
2019-04-11T17:25:52.368Z,18.30
2019-04-11T17:28:22.867Z,17.07
2019-04-11T17:30:54.758Z,16.20
2019-04-11T17:33:27.500Z,16.17
2019-04-11T17:35:57.001Z,16.93
2019-04-11T17:38:29.184Z,16.93
2019-04-11T17:41:03.663Z,16.87
2019-04-11T17:43:34.065Z,16.60
2019-04-11T17:46:04.793Z,15.87
2019-04-11T17:48:34.208Z,16.70
2019-04-11T17:51:13.013Z,17.93
2019-04-11T17:53:47.383Z,16.13
2019-04-11T17:56:18.108Z,17.23
2019-04-11T17:58:49.663Z,16.27
2019-04-11T18:01:20.622Z,16.67
2019-04-11T18:03:51.418Z,16.13
2019-04-11T18:06:21.946Z,17.93
2019-04-11T18:08:52.749Z,17.80
2019-04-11T18:11:25.676Z,15.40
2019-04-11T18:13:55.924Z,16.47
2019-04-11T18:16:28.777Z,16.80
2019-04-11T18:18:59.203Z,16.23
2019-04-11T18:21:30.000Z,15.73
2019-04-11T18:24:00.511Z,18.03
2019-04-11T18:26:30.001Z,17.00
2019-04-11T18:29:16.372Z,17.20
2019-04-11T18:31:46.869Z,16.20
2019-04-11T18:34:16.259Z,15.83
2019-04-11T18:36:48.820Z,16.00
2019-04-11T18:39:19.646Z,16.70
2019-04-11T18:41:50.370Z,15.50
2019-04-11T18:44:21.197Z,15.40
2019-04-11T18:46:53.992Z,16.33
2019-04-11T18:49:23.398Z,16.17
2019-04-11T18:51:53.884Z,15.97
2019-04-11T18:54:29.074Z,15.90
2019-04-11T18:56:59.639Z,16.00
2019-04-11T18:59:28.958Z,15.40
2019-04-11T19:01:59.362Z,16.23
2019-04-11T19:04:32.689Z,18.63
2019-04-11T19:07:00.374Z,15.30
2019-04-11T19:09:30.893Z,15.67
2019-04-11T19:12:02.771Z,14.77
2019-04-11T19:14:33.260Z,15.63
2019-04-11T19:17:03.686Z,15.40
2019-04-11T19:19:34.079Z,15.33
2019-04-11T19:22:05.729Z,16.70
2019-04-11T19:24:41.523Z,14.50
2019-04-11T19:27:08.677Z,15.73
2019-04-11T19:29:39.091Z,16.37
2019-04-11T19:32:11.319Z,16.80
2019-04-11T19:34:41.398Z,16.33
2019-04-11T19:37:12.704Z,16.23
2019-04-11T19:39:45.357Z,16.60
2019-04-11T19:42:18.806Z,14.93
2019-04-11T19:44:49.397Z,16.43
2019-04-11T19:47:21.452Z,16.57
2019-04-11T19:49:50.853Z,15.63
2019-04-11T19:52:20.425Z,16.50
2019-04-11T19:54:50.925Z,17.03
2019-04-11T19:57:21.334Z,16.80
2019-04-11T19:59:51.842Z,16.90
2019-04-11T20:02:23.515Z,15.87
2019-04-11T20:04:57.816Z,15.83
2019-04-11T20:07:28.812Z,16.17
2019-04-11T20:10:00.806Z,15.37
2019-04-11T20:12:31.282Z,14.90
2019-04-11T20:15:04.601Z,15.67
2019-04-11T20:17:43.665Z,15.07
2019-04-11T20:20:07.911Z,14.90
2019-04-11T20:22:39.742Z,15.37
2019-04-11T20:25:09.684Z,15.90
2019-04-11T20:27:40.093Z,14.50
2019-04-11T20:30:11.063Z,15.77
2019-04-11T20:32:41.434Z,15.80
2019-04-11T20:35:12.167Z,16.07
2019-04-11T20:37:45.930Z,14.50
2019-04-11T20:40:18.871Z,14.90
2019-04-11T20:42:49.401Z,15.43
2019-04-11T20:45:21.908Z,14.57
2019-04-11T20:47:53.567Z,14.60
2019-04-11T20:50:24.294Z,14.30
2019-04-11T20:53:00.495Z,14.67
2019-04-11T20:55:28.963Z,14.00
2019-04-11T20:57:59.472Z,14.60
2019-04-11T21:00:28.842Z,13.50
2019-04-11T21:02:59.240Z,12.67
2019-04-11T21:05:30.957Z,12.93
2019-04-11T21:08:02.982Z,12.50
2019-04-11T21:10:34.132Z,12.87
2019-04-11T21:13:07.245Z,12.30
2019-04-11T21:15:37.757Z,11.50
2019-04-11T21:18:08.785Z,11.60
2019-04-11T21:20:39.661Z,10.40
2019-04-11T21:23:08.556Z,10.43
2019-04-11T21:25:37.903Z,10.40
2019-04-11T21:28:17.128Z,10.20
2019-04-11T21:30:47.589Z,8.40
2019-04-11T21:33:19.763Z,9.70
2019-04-11T21:35:51.535Z,9.20
2019-04-11T21:38:22.152Z,8.90
2019-04-11T21:40:51.550Z,8.27
2019-04-11T21:43:23.378Z,7.33
2019-04-11T21:45:55.259Z,7.77
2019-04-11T21:48:25.067Z,8.37
2019-04-11T21:50:55.442Z,7.00
2019-04-11T21:53:36.123Z,7.70
2019-04-11T21:55:58.017Z,7.40
2019-04-11T21:58:30.196Z,7.00
2019-04-11T22:01:03.123Z,7.07
2019-04-11T22:03:34.252Z,7.07
2019-04-11T22:06:03.723Z,7.23
2019-04-11T22:08:35.046Z,7.33
2019-04-11T22:11:05.090Z,7.03
2019-04-11T22:13:37.926Z,6.40
2019-04-11T22:16:13.403Z,6.67
2019-04-11T22:18:40.963Z,6.33
2019-04-11T22:21:15.549Z,6.20
2019-04-11T22:23:48.865Z,6.43
2019-04-11T22:26:17.400Z,6.50
2019-04-11T22:28:49.714Z,6.60
2019-04-11T22:31:19.097Z,6.30
2019-04-11T22:33:51.272Z,7.50
2019-04-11T22:36:21.635Z,6.43
2019-04-11T22:38:52.038Z,6.37
2019-04-11T22:41:22.345Z,6.70
2019-04-11T22:43:51.709Z,6.70
2019-04-11T22:46:24.197Z,6.10
2019-04-11T22:48:53.883Z,6.27
2019-04-11T22:51:24.291Z,6.23
2019-04-11T22:54:00.340Z,6.37
2019-04-11T22:56:26.977Z,6.53
2019-04-11T22:58:58.522Z,6.70
2019-04-11T23:01:27.889Z,6.47
2019-04-11T23:04:02.482Z,5.77
2019-04-11T23:06:31.825Z,5.90
2019-04-11T23:09:02.234Z,6.07
2019-04-11T23:11:32.638Z,6.40
2019-04-11T23:14:04.726Z,6.20
2019-04-11T23:16:35.122Z,6.33
2019-04-11T23:19:04.526Z,5.93
2019-04-11T23:21:33.891Z,5.67
2019-04-11T23:24:11.835Z,6.63
2019-04-11T23:26:36.639Z,6.30
2019-04-11T23:29:05.937Z,6.10
2019-04-11T23:31:35.297Z,6.13
2019-04-11T23:34:07.854Z,6.43
2019-04-11T23:36:36.309Z,6.30
2019-04-11T23:39:06.783Z,6.90
2019-04-11T23:41:35.249Z,6.63
2019-04-11T23:44:04.926Z,6.47
2019-04-11T23:46:36.644Z,6.23
2019-04-11T23:49:09.034Z,6.47
2019-04-11T23:51:39.543Z,6.23
2019-04-11T23:54:09.947Z,6.00
2019-04-11T23:56:39.354Z,6.70
2019-04-11T23:59:10.080Z,5.87
